createdAt,value
2023-05-16T00:01:09.434Z,16.83
2023-05-16T00:03:38.262Z,16.95
2023-05-16T00:06:06.025Z,17.00
2023-05-16T00:08:32.986Z,17.02
2023-05-16T00:10:59.824Z,16.98
2023-05-16T00:13:26.782Z,16.99
2023-05-16T00:15:55.458Z,17.04
2023-05-16T00:18:23.218Z,16.83
2023-05-16T00:20:50.872Z,16.92
2023-05-16T00:23:17.802Z,16.88
2023-05-16T00:25:45.142Z,16.90
2023-05-16T00:28:11.977Z,16.86
2023-05-16T00:30:38.892Z,16.79
2023-05-16T00:33:05.915Z,16.80
2023-05-16T00:35:32.955Z,16.88
2023-05-16T00:37:59.831Z,16.92
2023-05-16T00:40:26.956Z,16.89
2023-05-16T00:42:53.974Z,16.98
2023-05-16T00:45:20.842Z,16.92
2023-05-16T00:47:48.110Z,17.00
2023-05-16T00:50:37.408Z,16.96
2023-05-16T00:53:04.483Z,17.04
2023-05-16T00:55:32.538Z,16.99
2023-05-16T00:58:01.271Z,17.10
2023-05-16T01:00:28.516Z,17.09
2023-05-16T01:02:56.396Z,17.08
2023-05-16T01:05:30.550Z,17.08
2023-05-16T01:07:57.436Z,16.94
2023-05-16T01:10:25.076Z,16.87
2023-05-16T01:13:18.490Z,16.79
2023-05-16T01:15:59.963Z,16.85
2023-05-16T01:18:40.881Z,16.80
2023-05-16T01:21:17.136Z,16.76
2023-05-16T01:24:13.732Z,16.72
2023-05-16T01:26:41.962Z,16.67
2023-05-16T01:29:09.013Z,16.65
2023-05-16T01:31:36.069Z,16.74
2023-05-16T01:34:03.147Z,16.69
2023-05-16T01:36:40.439Z,16.67
2023-05-16T01:39:19.955Z,16.50
2023-05-16T01:42:04.688Z,16.56
2023-05-16T01:45:00.005Z,16.50
2023-05-16T01:47:28.928Z,16.41
2023-05-16T01:50:15.692Z,16.41
2023-05-16T01:53:03.301Z,16.45
2023-05-16T01:55:51.162Z,16.45
2023-05-16T01:58:21.610Z,16.48
2023-05-16T02:00:48.524Z,16.48
2023-05-16T02:03:15.435Z,16.51
2023-05-16T02:05:42.355Z,16.55
2023-05-16T02:08:13.695Z,16.48
2023-05-16T02:10:41.431Z,16.40
2023-05-16T02:13:08.168Z,16.36
2023-05-16T02:15:35.076Z,16.28
2023-05-16T02:18:01.872Z,16.27
2023-05-16T02:20:28.624Z,16.36
2023-05-16T02:22:55.955Z,16.40
2023-05-16T02:25:22.736Z,16.42
2023-05-16T02:27:49.463Z,16.39
2023-05-16T02:30:16.326Z,16.30
2023-05-16T02:32:45.311Z,16.12
2023-05-16T02:35:12.508Z,16.06
2023-05-16T02:37:40.105Z,16.03
2023-05-16T02:40:08.085Z,16.01
2023-05-16T02:42:37.962Z,16.16
2023-05-16T02:45:05.130Z,16.23
2023-05-16T02:47:32.146Z,16.34
2023-05-16T02:49:59.906Z,16.41
2023-05-16T02:52:26.633Z,16.42
2023-05-16T02:57:23.261Z,16.22
2023-05-16T02:59:50.030Z,16.19
2023-05-16T03:02:16.807Z,16.18
2023-05-16T03:04:43.562Z,16.19
2023-05-16T03:07:10.834Z,16.16
2023-05-16T03:09:37.639Z,16.19
2023-05-16T03:12:06.601Z,16.22
2023-05-16T03:14:34.853Z,16.23
2023-05-16T03:17:03.658Z,16.24
2023-05-16T03:19:30.490Z,16.26
2023-05-16T03:21:57.701Z,16.28
2023-05-16T03:24:25.317Z,16.29
2023-05-16T03:26:52.225Z,16.37
2023-05-16T03:29:21.341Z,16.44
2023-05-16T03:31:48.126Z,16.42
2023-05-16T03:34:14.980Z,16.38
2023-05-16T03:36:41.866Z,16.42
2023-05-16T03:39:08.719Z,16.45
2023-05-16T03:41:35.714Z,16.35
2023-05-16T03:44:02.482Z,16.38
2023-05-16T03:46:29.404Z,16.34
2023-05-16T03:48:56.290Z,16.38
2023-05-16T03:51:23.364Z,16.38
2023-05-16T03:53:50.116Z,16.27
2023-05-16T03:56:17.034Z,16.26
2023-05-16T03:58:43.837Z,16.36
2023-05-16T04:01:10.528Z,16.33
2023-05-16T04:03:38.475Z,16.36
2023-05-16T04:06:07.696Z,16.44
2023-05-16T04:08:34.626Z,16.42
2023-05-16T04:11:01.398Z,16.42
2023-05-16T04:13:28.166Z,16.37
2023-05-16T04:15:54.984Z,16.33
2023-05-16T04:18:21.735Z,16.29
2023-05-16T04:20:48.464Z,16.19
2023-05-16T04:23:15.227Z,16.20
2023-05-16T04:25:42.996Z,16.21
2023-05-16T04:28:09.796Z,16.11
2023-05-16T04:30:37.520Z,16.12
2023-05-16T04:33:04.380Z,16.06
2023-05-16T04:35:31.222Z,16.09
2023-05-16T04:37:58.010Z,16.07
2023-05-16T04:40:25.547Z,16.12
2023-05-16T04:42:53.454Z,16.10
2023-05-16T04:45:21.132Z,16.19
2023-05-16T04:47:47.897Z,16.14
2023-05-16T04:50:16.211Z,16.14
2023-05-16T04:52:42.951Z,16.10
2023-05-16T04:55:11.572Z,16.08
2023-05-16T04:57:38.320Z,16.08
2023-05-16T05:00:08.996Z,16.04
2023-05-16T05:02:36.104Z,15.98
2023-05-16T05:05:03.427Z,16.03
2023-05-16T05:07:30.656Z,15.95
2023-05-16T05:09:57.366Z,16.06
2023-05-16T05:12:24.169Z,16.00
2023-05-16T05:14:51.233Z,16.13
2023-05-16T05:17:20.191Z,16.16
2023-05-16T05:19:48.133Z,16.15
2023-05-16T05:22:15.471Z,16.09
2023-05-16T05:24:42.441Z,16.16
2023-05-16T05:27:09.206Z,16.05
2023-05-16T05:29:36.020Z,16.14
2023-05-16T05:32:02.915Z,16.00
2023-05-16T05:34:29.863Z,16.12
2023-05-16T05:36:56.865Z,16.13
2023-05-16T05:39:24.772Z,16.27
2023-05-16T05:41:51.489Z,16.21
2023-05-16T05:44:18.250Z,16.19
2023-05-16T05:46:45.531Z,16.25
2023-05-16T05:49:12.545Z,16.21
2023-05-16T05:51:39.369Z,16.25
2023-05-16T05:54:06.422Z,16.22
2023-05-16T05:56:33.538Z,16.28
2023-05-16T05:59:00.323Z,16.25
2023-05-16T06:01:27.309Z,16.30
2023-05-16T06:03:54.163Z,16.42
2023-05-16T06:06:21.086Z,16.54
2023-05-16T06:08:47.865Z,16.58
2023-05-16T06:11:14.681Z,16.67
2023-05-16T06:13:41.501Z,16.72
2023-05-16T06:16:09.542Z,16.84
2023-05-16T06:18:37.986Z,16.89
2023-05-16T06:21:05.815Z,17.01
2023-05-16T06:23:33.249Z,17.15
2023-05-16T06:26:00.325Z,17.11
2023-05-16T06:28:27.118Z,17.26
2023-05-16T06:30:53.979Z,17.30
2023-05-16T06:33:21.072Z,17.31
2023-05-16T06:35:48.760Z,17.34
2023-05-16T06:38:16.048Z,17.40
2023-05-16T06:40:42.878Z,17.43
2023-05-16T06:43:09.725Z,17.55
2023-05-16T06:45:36.608Z,17.51
2023-05-16T06:48:05.108Z,17.55
2023-05-16T06:50:31.979Z,17.62
2023-05-16T06:52:58.818Z,17.56
2023-05-16T06:55:25.965Z,17.59
2023-05-16T06:57:52.984Z,17.54
2023-05-16T07:00:20.388Z,17.57
2023-05-16T07:02:47.278Z,17.80
2023-05-16T07:05:14.085Z,17.91
2023-05-16T07:07:40.971Z,17.88
2023-05-16T07:10:08.174Z,17.88
2023-05-16T07:12:38.407Z,17.91
2023-05-16T07:15:06.057Z,17.94
2023-05-16T07:17:33.194Z,18.04
2023-05-16T07:20:00.784Z,18.02
2023-05-16T07:22:28.578Z,18.02
2023-05-16T07:24:57.262Z,17.99
2023-05-16T07:27:24.032Z,17.93
2023-05-16T07:29:50.849Z,17.98
2023-05-16T07:32:18.255Z,17.89
2023-05-16T07:34:45.073Z,17.96
2023-05-16T07:37:13.112Z,18.10
2023-05-16T07:39:40.549Z,18.21
2023-05-16T07:42:08.483Z,18.36
2023-05-16T07:44:36.154Z,18.31
2023-05-16T07:47:03.435Z,18.38
2023-05-16T07:49:30.249Z,18.42
2023-05-16T07:51:57.088Z,18.48
2023-05-16T07:54:23.871Z,18.50
2023-05-16T07:56:50.668Z,18.62
2023-05-16T07:59:17.545Z,18.72
2023-05-16T08:01:44.468Z,18.82
2023-05-16T08:04:11.380Z,19.11
2023-05-16T08:06:38.175Z,19.21
2023-05-16T08:09:04.991Z,19.36
2023-05-16T08:11:31.845Z,19.31
2023-05-16T08:13:58.643Z,19.59
2023-05-16T08:16:25.784Z,19.61
2023-05-16T08:18:52.755Z,19.72
2023-05-16T08:21:19.640Z,19.88
2023-05-16T08:23:46.372Z,20.06
2023-05-16T08:26:13.159Z,20.06
2023-05-16T08:28:40.009Z,19.95
2023-05-16T08:31:06.901Z,20.24
2023-05-16T08:33:36.460Z,20.36
2023-05-16T08:36:03.441Z,20.42
2023-05-16T08:38:30.279Z,20.53
2023-05-16T08:40:57.240Z,20.53
2023-05-16T08:43:24.195Z,20.68
2023-05-16T08:45:51.032Z,20.42
2023-05-16T08:48:23.039Z,20.64
2023-05-16T08:50:50.055Z,20.67
2023-05-16T08:53:27.850Z,20.64
2023-05-16T08:55:57.117Z,20.40
2023-05-16T08:58:24.735Z,20.62
2023-05-16T09:00:51.991Z,20.90
2023-05-16T09:03:21.075Z,21.06
2023-05-16T09:05:48.178Z,21.28
2023-05-16T09:08:14.969Z,21.44
2023-05-16T09:10:41.920Z,21.32
2023-05-16T09:13:08.721Z,21.41
2023-05-16T09:15:35.672Z,21.55
2023-05-16T09:18:03.227Z,21.64
2023-05-16T09:20:33.016Z,21.89
2023-05-16T09:23:00.169Z,21.89
2023-05-16T09:25:31.296Z,22.18
2023-05-16T09:28:01.534Z,22.31
2023-05-16T09:30:31.738Z,22.53
2023-05-16T09:32:59.417Z,22.72
2023-05-16T09:35:43.246Z,22.81
2023-05-16T09:38:18.002Z,22.85
2023-05-16T09:40:45.700Z,22.67
2023-05-16T09:43:16.507Z,22.71
2023-05-16T09:45:48.934Z,22.71
2023-05-16T09:48:17.128Z,22.61
2023-05-16T09:50:54.600Z,22.57
2023-05-16T09:53:28.595Z,22.78
2023-05-16T09:56:02.452Z,22.94
2023-05-16T09:58:33.264Z,22.96
2023-05-16T10:01:00.650Z,23.09
2023-05-16T10:03:28.221Z,23.06
2023-05-16T10:05:55.994Z,22.87
2023-05-16T10:08:28.086Z,23.02
2023-05-16T10:10:56.898Z,23.09
2023-05-16T10:13:28.985Z,23.12
2023-05-16T10:15:57.461Z,23.28
2023-05-16T10:18:32.047Z,23.19
2023-05-16T10:21:15.154Z,22.99
2023-05-16T10:23:43.243Z,23.03
2023-05-16T10:26:14.309Z,22.93
2023-05-16T10:28:41.768Z,22.76
2023-05-16T10:31:11.125Z,22.51
2023-05-16T10:33:39.174Z,22.70
2023-05-16T10:36:08.050Z,22.54
2023-05-16T10:38:35.642Z,22.52
2023-05-16T10:41:02.930Z,22.45
2023-05-16T10:43:31.178Z,22.38
2023-05-16T10:46:03.260Z,22.26
2023-05-16T10:48:34.954Z,22.26
2023-05-16T10:51:03.713Z,22.42
2023-05-16T10:53:34.846Z,22.49
2023-05-16T10:56:01.656Z,22.53
2023-05-16T10:58:31.463Z,22.65
2023-05-16T11:01:21.084Z,22.83
2023-05-16T11:03:57.192Z,22.66
2023-05-16T11:06:26.213Z,22.65
2023-05-16T11:09:06.160Z,22.64
2023-05-16T11:11:53.962Z,22.74
2023-05-16T11:14:33.025Z,22.82
2023-05-16T11:17:09.454Z,22.63
2023-05-16T11:19:47.431Z,22.71
2023-05-16T11:22:17.131Z,22.84
2023-05-16T11:25:02.814Z,22.83
2023-05-16T11:27:32.230Z,22.94
2023-05-16T11:30:11.104Z,22.99
2023-05-16T11:32:39.689Z,22.82
2023-05-16T11:35:09.029Z,22.78
2023-05-16T11:37:39.780Z,22.85
2023-05-16T11:40:09.576Z,22.88
2023-05-16T11:42:39.374Z,22.91
2023-05-16T11:45:12.403Z,23.04
2023-05-16T11:47:41.024Z,23.06
2023-05-16T11:50:12.745Z,23.19
2023-05-16T11:52:40.302Z,23.23
2023-05-16T11:55:11.032Z,23.37
2023-05-16T11:57:44.499Z,23.29
2023-05-16T12:00:19.658Z,23.35
2023-05-16T12:02:48.003Z,23.16
2023-05-16T12:05:16.951Z,23.26
2023-05-16T12:07:44.914Z,23.42
2023-05-16T12:10:13.502Z,23.55
2023-05-16T12:12:45.296Z,23.56
2023-05-16T12:15:12.086Z,23.74
2023-05-16T12:17:40.939Z,23.74
2023-05-16T12:20:14.749Z,23.85
2023-05-16T12:22:44.299Z,23.89
2023-05-16T12:25:29.827Z,23.94
2023-05-16T12:28:01.982Z,23.89
2023-05-16T12:30:29.770Z,23.60
2023-05-16T12:33:05.106Z,23.38
2023-05-16T12:35:35.702Z,23.25
2023-05-16T12:38:06.662Z,22.95
2023-05-16T12:40:33.560Z,23.11
2023-05-16T12:43:01.114Z,23.19
2023-05-16T12:45:28.120Z,23.15
2023-05-16T12:47:54.966Z,23.11
2023-05-16T12:50:23.081Z,23.06
2023-05-16T12:52:51.474Z,23.05
2023-05-16T12:55:19.704Z,23.06
2023-05-16T12:57:48.264Z,23.18
2023-05-16T13:00:18.894Z,23.17
2023-05-16T13:02:47.586Z,23.02
2023-05-16T13:05:15.051Z,23.08
2023-05-16T13:07:42.119Z,22.97
2023-05-16T13:10:10.863Z,22.85
2023-05-16T13:12:39.194Z,22.70
2023-05-16T13:15:07.634Z,22.63
2023-05-16T13:17:44.278Z,22.54
2023-05-16T13:20:15.176Z,22.47
2023-05-16T13:22:43.594Z,22.15
2023-05-16T13:25:11.374Z,22.13
2023-05-16T13:27:38.301Z,22.06
2023-05-16T13:30:05.899Z,22.06
2023-05-16T13:32:32.966Z,21.92
2023-05-16T13:34:59.815Z,21.91
2023-05-16T13:37:26.701Z,21.83
2023-05-16T13:39:56.316Z,21.84
2023-05-16T13:42:23.198Z,21.85
2023-05-16T13:44:51.471Z,21.84
2023-05-16T13:47:18.251Z,21.72
2023-05-16T13:49:47.966Z,21.62
2023-05-16T13:52:15.019Z,21.35
2023-05-16T13:54:41.857Z,21.55
2023-05-16T13:57:08.749Z,21.58
2023-05-16T13:59:59.253Z,21.48
2023-05-16T14:02:22.936Z,21.75
2023-05-16T14:04:50.179Z,21.97
2023-05-16T14:07:17.181Z,21.97
2023-05-16T14:09:44.674Z,22.09
2023-05-16T14:12:11.613Z,22.05
2023-05-16T14:14:38.652Z,22.00
2023-05-16T14:17:05.435Z,21.86
2023-05-16T14:19:32.350Z,21.79
2023-05-16T14:21:59.209Z,21.85
2023-05-16T14:24:26.605Z,21.90
2023-05-16T14:26:58.381Z,21.90
2023-05-16T14:29:25.745Z,21.91
2023-05-16T14:31:53.167Z,21.88
2023-05-16T14:34:22.366Z,21.83
2023-05-16T14:36:49.666Z,21.78
2023-05-16T14:39:16.612Z,21.71
2023-05-16T14:41:43.697Z,21.71
2023-05-16T14:44:10.509Z,21.55
2023-05-16T14:46:37.534Z,21.89
2023-05-16T14:49:04.926Z,22.08
2023-05-16T14:51:32.407Z,22.08
2023-05-16T14:53:59.261Z,22.06
2023-05-16T14:56:27.004Z,22.30
2023-05-16T14:58:54.259Z,22.21
2023-05-16T15:01:21.561Z,22.31
2023-05-16T15:03:55.502Z,22.38
2023-05-16T15:06:24.851Z,22.48
2023-05-16T15:08:51.922Z,22.78
2023-05-16T15:11:18.742Z,22.82
2023-05-16T15:13:45.535Z,22.50
2023-05-16T15:16:12.504Z,22.64
2023-05-16T15:18:40.518Z,22.60
2023-05-16T15:21:07.588Z,22.77
2023-05-16T15:23:34.576Z,22.56
2023-05-16T15:26:01.361Z,22.83
2023-05-16T15:28:28.099Z,22.82
2023-05-16T15:30:54.964Z,23.02
2023-05-16T15:33:21.750Z,22.76
2023-05-16T15:35:48.601Z,23.07
2023-05-16T15:38:15.689Z,23.06
2023-05-16T15:40:42.666Z,23.05
2023-05-16T15:43:09.493Z,23.11
2023-05-16T15:45:39.866Z,22.90
2023-05-16T15:48:07.459Z,22.80
2023-05-16T15:50:34.344Z,22.84
2023-05-16T15:53:01.211Z,22.98
2023-05-16T15:55:28.294Z,23.04
2023-05-16T15:57:57.438Z,23.03
2023-05-16T16:00:25.026Z,23.02
2023-05-16T16:02:52.315Z,23.07
2023-05-16T16:05:19.183Z,22.83
2023-05-16T16:07:46.095Z,22.83
2023-05-16T16:10:12.972Z,22.83
2023-05-16T16:12:39.914Z,23.08
2023-05-16T16:15:07.536Z,23.24
2023-05-16T16:17:34.467Z,22.96
2023-05-16T16:20:01.412Z,22.94
2023-05-16T16:22:28.313Z,23.02
2023-05-16T16:24:56.149Z,23.09
2023-05-16T16:27:23.557Z,23.02
2023-05-16T16:29:50.403Z,23.09
2023-05-16T16:32:17.249Z,23.17
2023-05-16T16:34:44.003Z,23.09
2023-05-16T16:37:11.625Z,23.18
2023-05-16T16:39:38.740Z,22.97
2023-05-16T16:42:06.225Z,22.83
2023-05-16T16:44:33.141Z,22.72
2023-05-16T16:46:59.957Z,22.81
2023-05-16T16:49:26.866Z,22.30
2023-05-16T16:51:53.738Z,22.49
2023-05-16T16:54:22.387Z,22.40
2023-05-16T16:56:49.834Z,22.48
2023-05-16T16:59:16.852Z,22.50
2023-05-16T17:01:44.006Z,22.47
2023-05-16T17:04:11.958Z,22.36
2023-05-16T17:06:38.737Z,22.37
2023-05-16T17:09:07.008Z,22.08
2023-05-16T17:11:36.390Z,22.05
2023-05-16T17:14:05.863Z,22.04
2023-05-16T17:16:33.499Z,22.04
2023-05-16T17:19:00.447Z,22.06
2023-05-16T17:21:28.141Z,22.06
2023-05-16T17:23:55.385Z,22.27
2023-05-16T17:26:22.232Z,22.28
2023-05-16T17:28:49.310Z,22.20
2023-05-16T17:31:16.295Z,22.39
2023-05-16T17:33:43.080Z,22.19
2023-05-16T17:36:10.755Z,22.21
2023-05-16T17:38:37.803Z,22.14
2023-05-16T17:41:04.818Z,21.89
2023-05-16T17:43:31.678Z,21.74
2023-05-16T17:45:58.556Z,21.71
2023-05-16T17:48:25.436Z,21.64
2023-05-16T17:50:55.079Z,21.41
2023-05-16T17:53:21.955Z,21.39
2023-05-16T17:55:49.718Z,21.22
2023-05-16T17:58:17.970Z,21.31
2023-05-16T18:00:46.640Z,21.15
2023-05-16T18:03:13.582Z,21.29
2023-05-16T18:05:40.588Z,21.28
2023-05-16T18:08:08.650Z,21.27
2023-05-16T18:10:50.370Z,21.25
2023-05-16T18:13:17.632Z,21.33
2023-05-16T18:15:44.460Z,21.22
2023-05-16T18:18:11.785Z,21.21
2023-05-16T18:20:38.910Z,21.18
2023-05-16T18:23:05.690Z,21.20
2023-05-16T18:25:32.476Z,21.21
2023-05-16T18:27:59.301Z,21.22
2023-05-16T18:30:26.432Z,21.15
2023-05-16T18:32:53.377Z,20.97
2023-05-16T18:35:20.346Z,21.04
2023-05-16T18:37:47.328Z,20.94
2023-05-16T18:40:14.227Z,20.98
2023-05-16T18:42:41.095Z,20.98
2023-05-16T18:45:08.480Z,21.04
2023-05-16T18:47:35.264Z,21.09
2023-05-16T18:50:02.764Z,20.97
2023-05-16T18:52:29.586Z,20.98
2023-05-16T18:54:56.652Z,20.98
2023-05-16T18:57:23.427Z,20.81
2023-05-16T18:59:53.569Z,20.85
2023-05-16T19:02:27.222Z,20.85
2023-05-16T19:05:01.702Z,20.86
2023-05-16T19:07:28.691Z,20.86
2023-05-16T19:09:55.505Z,20.74
2023-05-16T19:12:24.144Z,20.75
2023-05-16T19:14:51.518Z,20.72
2023-05-16T19:17:18.421Z,20.67
2023-05-16T19:19:45.389Z,20.66
2023-05-16T19:22:12.293Z,20.51
2023-05-16T19:24:39.018Z,20.50
2023-05-16T19:27:06.058Z,20.45
2023-05-16T19:29:32.806Z,20.46
2023-05-16T19:31:59.706Z,20.48
2023-05-16T19:34:26.793Z,20.49
2023-05-16T19:36:53.882Z,20.51
2023-05-16T19:39:20.648Z,20.46
2023-05-16T19:41:51.633Z,20.42
2023-05-16T19:44:22.703Z,20.44
2023-05-16T19:46:49.546Z,20.35
2023-05-16T19:49:19.509Z,20.38
2023-05-16T19:51:53.386Z,20.39
2023-05-16T19:54:20.147Z,20.38
2023-05-16T19:56:47.093Z,20.40
2023-05-16T19:59:14.056Z,20.31
2023-05-16T20:04:12.934Z,20.24
2023-05-16T20:06:40.002Z,20.26
2023-05-16T20:09:07.381Z,20.29
2023-05-16T20:11:34.382Z,20.24
2023-05-16T20:14:01.182Z,20.21
2023-05-16T20:16:28.031Z,20.24
2023-05-16T20:18:54.861Z,20.25
2023-05-16T20:21:21.743Z,20.27
2023-05-16T20:23:48.571Z,20.27
2023-05-16T20:26:15.569Z,20.29
2023-05-16T20:28:42.465Z,20.29
2023-05-16T20:31:09.252Z,20.28
2023-05-16T20:33:36.298Z,20.28
2023-05-16T20:36:03.471Z,20.28
2023-05-16T20:38:30.315Z,20.26
2023-05-16T20:40:57.194Z,20.25
2023-05-16T20:43:26.506Z,20.24
2023-05-16T20:45:55.286Z,20.21
2023-05-16T20:48:22.125Z,20.21
2023-05-16T20:50:48.982Z,20.19
2023-05-16T20:53:15.832Z,20.19
2023-05-16T20:55:42.644Z,20.19
2023-05-16T20:58:09.449Z,20.13
2023-05-16T21:00:36.299Z,20.11
2023-05-16T21:03:03.341Z,20.02
2023-05-16T21:05:30.228Z,19.98
2023-05-16T21:07:57.064Z,20.02
2023-05-16T21:10:23.920Z,20.01
2023-05-16T21:12:50.938Z,20.06
2023-05-16T21:15:17.723Z,20.07
2023-05-16T21:17:44.609Z,20.06
2023-05-16T21:20:11.686Z,20.02
2023-05-16T21:22:38.552Z,19.99
2023-05-16T21:25:05.839Z,19.99
2023-05-16T21:27:33.042Z,19.95
2023-05-16T21:30:02.727Z,19.89
2023-05-16T21:32:32.419Z,19.80
2023-05-16T21:35:04.228Z,19.81
2023-05-16T21:37:31.008Z,19.80
2023-05-16T21:39:57.791Z,19.83
2023-05-16T21:42:24.652Z,19.83
2023-05-16T21:44:51.640Z,19.81
2023-05-16T21:47:18.417Z,19.77
2023-05-16T21:49:45.494Z,19.73
2023-05-16T21:52:12.401Z,19.68
2023-05-16T21:54:39.182Z,19.62
2023-05-16T21:57:06.564Z,19.61
2023-05-16T21:59:33.536Z,19.54
2023-05-16T22:02:00.328Z,19.37
2023-05-16T22:04:27.441Z,19.34
2023-05-16T22:06:54.396Z,19.21
2023-05-16T22:09:21.160Z,19.11
2023-05-16T22:11:47.941Z,19.01
2023-05-16T22:14:14.740Z,18.97
2023-05-16T22:16:41.576Z,19.02
2023-05-16T22:19:09.108Z,18.96
2023-05-16T22:21:36.147Z,19.01
2023-05-16T22:24:03.329Z,18.93
2023-05-16T22:26:30.147Z,18.87
2023-05-16T22:28:56.975Z,18.71
2023-05-16T22:31:23.724Z,18.72
2023-05-16T22:33:50.557Z,18.69
2023-05-16T22:36:17.367Z,18.66
2023-05-16T22:38:44.191Z,18.64
2023-05-16T22:41:11.008Z,18.51
2023-05-16T22:43:38.442Z,18.43
2023-05-16T22:46:05.413Z,18.41
2023-05-16T22:48:32.262Z,18.50
2023-05-16T22:50:59.741Z,18.51
2023-05-16T22:53:26.708Z,18.54
2023-05-16T22:55:53.499Z,18.50
2023-05-16T22:58:20.378Z,18.30
2023-05-16T23:00:47.166Z,18.20
2023-05-16T23:03:14.086Z,18.16
2023-05-16T23:05:41.114Z,18.12
2023-05-16T23:08:07.927Z,18.04
2023-05-16T23:10:34.996Z,18.00
2023-05-16T23:13:01.921Z,17.98
2023-05-16T23:15:29.074Z,17.85
2023-05-16T23:17:57.709Z,17.79
2023-05-16T23:20:24.576Z,17.78
2023-05-16T23:22:51.402Z,17.75
2023-05-16T23:25:18.310Z,17.83
2023-05-16T23:27:45.110Z,17.89
2023-05-16T23:30:12.286Z,17.79
2023-05-16T23:32:39.118Z,17.85
2023-05-16T23:35:06.502Z,17.81
2023-05-16T23:37:33.359Z,17.82
2023-05-16T23:40:00.146Z,17.87
2023-05-16T23:42:26.956Z,17.86
2023-05-16T23:44:53.699Z,17.88
2023-05-16T23:47:20.538Z,17.75
2023-05-16T23:49:47.353Z,17.78
2023-05-16T23:52:14.173Z,17.83
2023-05-16T23:54:41.083Z,17.85
2023-05-16T23:57:07.964Z,17.78
2023-05-16T23:59:34.767Z,17.75
